sensor_id;sensor_type;location;lat;lon;timestamp;P1;durP1;ratioP1;P2;durP2;ratioP2
28724;SDS011;43472;48.980;9.646;2023-06-22T00:00:57;14.23;;;6.78;;
28724;SDS011;43472;48.980;9.646;2023-06-22T00:06:01;12.85;;;5.97;;
28724;SDS011;43472;48.980;9.646;2023-06-22T00:11:02;8.90;;;5.57;;
28724;SDS011;43472;48.980;9.646;2023-06-22T00:16:04;12.23;;;5.55;;
28724;SDS011;43472;48.980;9.646;2023-06-22T00:21:08;13.68;;;5.45;;
28724;SDS011;43472;48.980;9.646;2023-06-22T00:26:10;12.48;;;5.57;;
28724;SDS011;43472;48.980;9.646;2023-06-22T00:31:13;11.90;;;5.47;;
28724;SDS011;43472;48.980;9.646;2023-06-22T00:36:16;11.73;;;6.20;;
28724;SDS011;43472;48.980;9.646;2023-06-22T00:41:19;8.38;;;5.78;;
28724;SDS011;43472;48.980;9.646;2023-06-22T00:46:21;9.43;;;6.57;;
28724;SDS011;43472;48.980;9.646;2023-06-22T00:51:25;9.98;;;6.65;;
28724;SDS011;43472;48.980;9.646;2023-06-22T00:56:27;13.10;;;7.70;;
28724;SDS011;43472;48.980;9.646;2023-06-22T01:01:31;15.10;;;7.50;;
28724;SDS011;43472;48.980;9.646;2023-06-22T01:06:35;20.02;;;7.53;;
28724;SDS011;43472;48.980;9.646;2023-06-22T01:11:44;14.25;;;7.00;;
28724;SDS011;43472;48.980;9.646;2023-06-22T01:16:49;10.63;;;6.82;;
28724;SDS011;43472;48.980;9.646;2023-06-22T01:21:56;24.75;;;6.93;;
28724;SDS011;43472;48.980;9.646;2023-06-22T01:32:33;13.13;;;7.72;;
28724;SDS011;43472;48.980;9.646;2023-06-22T01:42:39;13.20;;;8.13;;
28724;SDS011;43472;48.980;9.646;2023-06-22T01:47:45;11.30;;;7.95;;
28724;SDS011;43472;48.980;9.646;2023-06-22T01:52:48;13.00;;;8.15;;
28724;SDS011;43472;48.980;9.646;2023-06-22T01:57:50;14.75;;;8.25;;
28724;SDS011;43472;48.980;9.646;2023-06-22T02:02:59;15.70;;;7.30;;
28724;SDS011;43472;48.980;9.646;2023-06-22T02:08:11;11.40;;;6.68;;
28724;SDS011;43472;48.980;9.646;2023-06-22T02:13:20;15.10;;;8.23;;
28724;SDS011;43472;48.980;9.646;2023-06-22T02:18:22;12.05;;;7.28;;
28724;SDS011;43472;48.980;9.646;2023-06-22T02:23:24;12.68;;;7.25;;
28724;SDS011;43472;48.980;9.646;2023-06-22T02:28:27;11.45;;;7.65;;
28724;SDS011;43472;48.980;9.646;2023-06-22T02:33:31;15.75;;;8.07;;
28724;SDS011;43472;48.980;9.646;2023-06-22T02:38:33;16.08;;;7.85;;
28724;SDS011;43472;48.980;9.646;2023-06-22T02:43:36;20.50;;;9.57;;
28724;SDS011;43472;48.980;9.646;2023-06-22T02:48:38;18.98;;;9.30;;
28724;SDS011;43472;48.980;9.646;2023-06-22T02:53:42;18.02;;;10.35;;
28724;SDS011;43472;48.980;9.646;2023-06-22T02:58:47;20.15;;;12.55;;
28724;SDS011;43472;48.980;9.646;2023-06-22T03:03:48;18.23;;;11.90;;
28724;SDS011;43472;48.980;9.646;2023-06-22T03:08:51;24.50;;;12.70;;
28724;SDS011;43472;48.980;9.646;2023-06-22T03:13:53;23.00;;;11.90;;
28724;SDS011;43472;48.980;9.646;2023-06-22T03:18:56;20.92;;;11.45;;
28724;SDS011;43472;48.980;9.646;2023-06-22T03:23:59;18.85;;;11.02;;
28724;SDS011;43472;48.980;9.646;2023-06-22T03:29:01;14.38;;;9.45;;
28724;SDS011;43472;48.980;9.646;2023-06-22T03:34:03;14.25;;;10.40;;
28724;SDS011;43472;48.980;9.646;2023-06-22T03:39:07;15.65;;;11.55;;
28724;SDS011;43472;48.980;9.646;2023-06-22T03:44:10;27.40;;;11.75;;
28724;SDS011;43472;48.980;9.646;2023-06-22T03:49:13;16.88;;;10.23;;
28724;SDS011;43472;48.980;9.646;2023-06-22T03:54:17;16.33;;;9.57;;
28724;SDS011;43472;48.980;9.646;2023-06-22T03:59:19;16.80;;;9.23;;
28724;SDS011;43472;48.980;9.646;2023-06-22T04:04:20;18.08;;;9.50;;
28724;SDS011;43472;48.980;9.646;2023-06-22T04:09:23;17.55;;;10.02;;
28724;SDS011;43472;48.980;9.646;2023-06-22T04:14:25;18.88;;;11.18;;
28724;SDS011;43472;48.980;9.646;2023-06-22T04:19:28;17.58;;;10.65;;
28724;SDS011;43472;48.980;9.646;2023-06-22T04:24:30;16.30;;;10.85;;
28724;SDS011;43472;48.980;9.646;2023-06-22T04:29:32;18.48;;;11.57;;
28724;SDS011;43472;48.980;9.646;2023-06-22T04:34:34;18.17;;;12.45;;
28724;SDS011;43472;48.980;9.646;2023-06-22T04:39:36;22.25;;;13.52;;
28724;SDS011;43472;48.980;9.646;2023-06-22T04:44:39;20.98;;;13.90;;
28724;SDS011;43472;48.980;9.646;2023-06-22T04:49:41;20.20;;;11.82;;
28724;SDS011;43472;48.980;9.646;2023-06-22T04:54:44;14.32;;;10.13;;
28724;SDS011;43472;48.980;9.646;2023-06-22T04:59:51;16.35;;;8.98;;
28724;SDS011;43472;48.980;9.646;2023-06-22T05:04:54;15.90;;;9.73;;
28724;SDS011;43472;48.980;9.646;2023-06-22T05:09:58;16.65;;;10.18;;
28724;SDS011;43472;48.980;9.646;2023-06-22T05:15:00;17.08;;;10.73;;
28724;SDS011;43472;48.980;9.646;2023-06-22T05:20:03;14.63;;;9.35;;
28724;SDS011;43472;48.980;9.646;2023-06-22T05:25:08;18.05;;;10.43;;
28724;SDS011;43472;48.980;9.646;2023-06-22T05:30:28;15.50;;;9.68;;
28724;SDS011;43472;48.980;9.646;2023-06-22T05:35:48;24.27;;;10.20;;
28724;SDS011;43472;48.980;9.646;2023-06-22T05:40:52;12.32;;;9.13;;
28724;SDS011;43472;48.980;9.646;2023-06-22T05:45:55;11.98;;;8.25;;
28724;SDS011;43472;48.980;9.646;2023-06-22T05:51:00;11.52;;;8.10;;
28724;SDS011;43472;48.980;9.646;2023-06-22T05:56:07;9.95;;;6.72;;
28724;SDS011;43472;48.980;9.646;2023-06-22T06:01:09;13.82;;;7.78;;
28724;SDS011;43472;48.980;9.646;2023-06-22T06:06:11;15.85;;;9.00;;
28724;SDS011;43472;48.980;9.646;2023-06-22T06:11:14;12.68;;;7.47;;
28724;SDS011;43472;48.980;9.646;2023-06-22T06:16:16;12.07;;;7.80;;
28724;SDS011;43472;48.980;9.646;2023-06-22T06:21:18;20.40;;;7.55;;
28724;SDS011;43472;48.980;9.646;2023-06-22T06:26:22;9.43;;;6.68;;
28724;SDS011;43472;48.980;9.646;2023-06-22T06:31:29;12.80;;;6.80;;
28724;SDS011;43472;48.980;9.646;2023-06-22T06:36:31;11.02;;;6.55;;
28724;SDS011;43472;48.980;9.646;2023-06-22T06:41:35;11.23;;;6.35;;
28724;SDS011;43472;48.980;9.646;2023-06-22T06:46:36;18.17;;;6.72;;
28724;SDS011;43472;48.980;9.646;2023-06-22T06:51:40;13.35;;;6.15;;
28724;SDS011;43472;48.980;9.646;2023-06-22T06:56:42;12.52;;;5.63;;
28724;SDS011;43472;48.980;9.646;2023-06-22T07:01:49;7.80;;;5.53;;
28724;SDS011;43472;48.980;9.646;2023-06-22T07:06:51;10.15;;;5.75;;
28724;SDS011;43472;48.980;9.646;2023-06-22T07:11:55;14.00;;;5.82;;
28724;SDS011;43472;48.980;9.646;2023-06-22T07:16:58;6.82;;;4.90;;
28724;SDS011;43472;48.980;9.646;2023-06-22T07:22:00;6.60;;;4.00;;
28724;SDS011;43472;48.980;9.646;2023-06-22T07:27:02;7.18;;;4.40;;
28724;SDS011;43472;48.980;9.646;2023-06-22T07:32:05;7.28;;;4.43;;
28724;SDS011;43472;48.980;9.646;2023-06-22T07:37:07;8.90;;;4.60;;
28724;SDS011;43472;48.980;9.646;2023-06-22T07:42:09;7.03;;;4.65;;
28724;SDS011;43472;48.980;9.646;2023-06-22T07:47:11;8.73;;;4.80;;
28724;SDS011;43472;48.980;9.646;2023-06-22T07:52:13;10.07;;;4.20;;
28724;SDS011;43472;48.980;9.646;2023-06-22T07:57:17;8.93;;;4.40;;
28724;SDS011;43472;48.980;9.646;2023-06-22T08:02:19;12.80;;;4.53;;
28724;SDS011;43472;48.980;9.646;2023-06-22T08:07:22;7.72;;;3.88;;
28724;SDS011;43472;48.980;9.646;2023-06-22T08:12:25;8.63;;;3.75;;
28724;SDS011;43472;48.980;9.646;2023-06-22T08:17:27;8.63;;;3.92;;
28724;SDS011;43472;48.980;9.646;2023-06-22T08:22:29;10.68;;;3.78;;
28724;SDS011;43472;48.980;9.646;2023-06-22T08:27:34;8.18;;;4.03;;
28724;SDS011;43472;48.980;9.646;2023-06-22T08:32:38;7.93;;;3.83;;
28724;SDS011;43472;48.980;9.646;2023-06-22T08:37:40;7.07;;;3.58;;
28724;SDS011;43472;48.980;9.646;2023-06-22T08:42:42;7.10;;;4.15;;
28724;SDS011;43472;48.980;9.646;2023-06-22T08:47:46;6.72;;;3.58;;
28724;SDS011;43472;48.980;9.646;2023-06-22T08:52:49;9.27;;;3.50;;
28724;SDS011;43472;48.980;9.646;2023-06-22T08:57:51;10.20;;;3.78;;
28724;SDS011;43472;48.980;9.646;2023-06-22T09:02:52;10.45;;;3.50;;
28724;SDS011;43472;48.980;9.646;2023-06-22T09:07:56;6.15;;;3.55;;
28724;SDS011;43472;48.980;9.646;2023-06-22T09:13:00;9.95;;;3.60;;
28724;SDS011;43472;48.980;9.646;2023-06-22T09:18:05;12.35;;;3.97;;
28724;SDS011;43472;48.980;9.646;2023-06-22T09:23:07;9.70;;;3.95;;
28724;SDS011;43472;48.980;9.646;2023-06-22T09:28:09;8.80;;;3.95;;
28724;SDS011;43472;48.980;9.646;2023-06-22T09:33:11;12.20;;;3.40;;
28724;SDS011;43472;48.980;9.646;2023-06-22T09:38:13;7.22;;;3.58;;
28724;SDS011;43472;48.980;9.646;2023-06-22T09:43:15;6.10;;;3.65;;
28724;SDS011;43472;48.980;9.646;2023-06-22T09:48:18;7.30;;;3.45;;
28724;SDS011;43472;48.980;9.646;2023-06-22T09:53:20;11.27;;;3.47;;
28724;SDS011;43472;48.980;9.646;2023-06-22T09:58:22;10.35;;;3.65;;
28724;SDS011;43472;48.980;9.646;2023-06-22T10:03:24;12.93;;;3.95;;
28724;SDS011;43472;48.980;9.646;2023-06-22T10:08:26;7.78;;;3.15;;
28724;SDS011;43472;48.980;9.646;2023-06-22T10:13:29;9.50;;;3.60;;
28724;SDS011;43472;48.980;9.646;2023-06-22T10:18:31;13.60;;;4.45;;
28724;SDS011;43472;48.980;9.646;2023-06-22T10:23:32;8.80;;;4.43;;
28724;SDS011;43472;48.980;9.646;2023-06-22T10:28:37;16.80;;;3.10;;
28724;SDS011;43472;48.980;9.646;2023-06-22T10:33:39;12.25;;;4.43;;
28724;SDS011;43472;48.980;9.646;2023-06-22T10:38:43;11.13;;;3.67;;
28724;SDS011;43472;48.980;9.646;2023-06-22T10:43:44;8.35;;;3.40;;
28724;SDS011;43472;48.980;9.646;2023-06-22T10:48:46;9.40;;;3.60;;
28724;SDS011;43472;48.980;9.646;2023-06-22T10:53:50;7.07;;;3.42;;
28724;SDS011;43472;48.980;9.646;2023-06-22T10:58:52;9.13;;;3.53;;
28724;SDS011;43472;48.980;9.646;2023-06-22T11:03:54;9.57;;;3.67;;
28724;SDS011;43472;48.980;9.646;2023-06-22T11:08:56;11.60;;;3.85;;
28724;SDS011;43472;48.980;9.646;2023-06-22T11:14:12;8.98;;;4.03;;
28724;SDS011;43472;48.980;9.646;2023-06-22T11:19:14;11.68;;;4.07;;
28724;SDS011;43472;48.980;9.646;2023-06-22T11:24:16;12.32;;;3.50;;
28724;SDS011;43472;48.980;9.646;2023-06-22T11:29:19;11.13;;;4.43;;
28724;SDS011;43472;48.980;9.646;2023-06-22T11:34:37;15.68;;;4.03;;
28724;SDS011;43472;48.980;9.646;2023-06-22T11:39:41;8.70;;;3.90;;
28724;SDS011;43472;48.980;9.646;2023-06-22T11:44:48;9.70;;;3.95;;
28724;SDS011;43472;48.980;9.646;2023-06-22T11:49:50;10.82;;;3.50;;
28724;SDS011;43472;48.980;9.646;2023-06-22T11:54:52;12.15;;;4.28;;
28724;SDS011;43472;48.980;9.646;2023-06-22T11:59:54;12.25;;;4.00;;
28724;SDS011;43472;48.980;9.646;2023-06-22T12:04:58;11.73;;;4.43;;
28724;SDS011;43472;48.980;9.646;2023-06-22T12:10:03;11.90;;;3.97;;
28724;SDS011;43472;48.980;9.646;2023-06-22T12:15:07;16.55;;;5.22;;
28724;SDS011;43472;48.980;9.646;2023-06-22T12:20:11;10.30;;;4.18;;
28724;SDS011;43472;48.980;9.646;2023-06-22T12:25:13;7.00;;;3.65;;
28724;SDS011;43472;48.980;9.646;2023-06-22T12:30:15;8.85;;;4.25;;
28724;SDS011;43472;48.980;9.646;2023-06-22T12:35:18;11.75;;;3.90;;
28724;SDS011;43472;48.980;9.646;2023-06-22T12:40:22;9.38;;;4.40;;
28724;SDS011;43472;48.980;9.646;2023-06-22T12:45:25;11.52;;;4.75;;
28724;SDS011;43472;48.980;9.646;2023-06-22T12:50:30;13.35;;;4.72;;
28724;SDS011;43472;48.980;9.646;2023-06-22T12:55:33;32.80;;;4.80;;
28724;SDS011;43472;48.980;9.646;2023-06-22T13:00:37;13.85;;;3.67;;
28724;SDS011;43472;48.980;9.646;2023-06-22T13:05:40;14.63;;;3.95;;
28724;SDS011;43472;48.980;9.646;2023-06-22T13:10:42;13.70;;;4.03;;
28724;SDS011;43472;48.980;9.646;2023-06-22T13:15:43;15.35;;;4.13;;
28724;SDS011;43472;48.980;9.646;2023-06-22T13:20:45;13.43;;;4.13;;
28724;SDS011;43472;48.980;9.646;2023-06-22T13:25:50;14.32;;;4.65;;
28724;SDS011;43472;48.980;9.646;2023-06-22T13:30:51;10.32;;;4.20;;
28724;SDS011;43472;48.980;9.646;2023-06-22T13:36:11;12.80;;;4.65;;
28724;SDS011;43472;48.980;9.646;2023-06-22T13:41:30;12.80;;;4.72;;
28724;SDS011;43472;48.980;9.646;2023-06-22T13:46:32;16.38;;;4.88;;
28724;SDS011;43472;48.980;9.646;2023-06-22T13:51:35;16.35;;;4.60;;
28724;SDS011;43472;48.980;9.646;2023-06-22T13:56:38;17.63;;;5.70;;
28724;SDS011;43472;48.980;9.646;2023-06-22T14:01:40;11.70;;;5.38;;
28724;SDS011;43472;48.980;9.646;2023-06-22T14:06:43;19.60;;;5.88;;
28724;SDS011;43472;48.980;9.646;2023-06-22T14:11:44;15.38;;;6.05;;
28724;SDS011;43472;48.980;9.646;2023-06-22T14:16:48;13.18;;;4.63;;
28724;SDS011;43472;48.980;9.646;2023-06-22T14:21:51;8.15;;;4.78;;
28724;SDS011;43472;48.980;9.646;2023-06-22T14:26:53;9.38;;;4.68;;
28724;SDS011;43472;48.980;9.646;2023-06-22T14:31:56;10.15;;;5.05;;
28724;SDS011;43472;48.980;9.646;2023-06-22T14:36:58;10.05;;;4.18;;
28724;SDS011;43472;48.980;9.646;2023-06-22T14:42:01;7.03;;;4.18;;
28724;SDS011;43472;48.980;9.646;2023-06-22T14:47:04;11.55;;;4.28;;
28724;SDS011;43472;48.980;9.646;2023-06-22T14:52:06;13.70;;;4.18;;
28724;SDS011;43472;48.980;9.646;2023-06-22T14:57:09;10.32;;;4.72;;
28724;SDS011;43472;48.980;9.646;2023-06-22T15:02:11;17.55;;;4.10;;
28724;SDS011;43472;48.980;9.646;2023-06-22T15:07:13;11.35;;;4.32;;
28724;SDS011;43472;48.980;9.646;2023-06-22T15:12:15;18.50;;;5.05;;
28724;SDS011;43472;48.980;9.646;2023-06-22T15:17:17;13.32;;;4.53;;
28724;SDS011;43472;48.980;9.646;2023-06-22T15:22:19;15.07;;;4.78;;
28724;SDS011;43472;48.980;9.646;2023-06-22T15:27:21;21.60;;;4.63;;
28724;SDS011;43472;48.980;9.646;2023-06-22T15:32:23;20.52;;;4.40;;
28724;SDS011;43472;48.980;9.646;2023-06-22T15:37:26;17.45;;;4.63;;
28724;SDS011;43472;48.980;9.646;2023-06-22T15:42:30;17.58;;;4.65;;
28724;SDS011;43472;48.980;9.646;2023-06-22T15:47:34;19.00;;;5.00;;
28724;SDS011;43472;48.980;9.646;2023-06-22T15:52:39;18.75;;;4.40;;
28724;SDS011;43472;48.980;9.646;2023-06-22T15:57:42;14.07;;;4.45;;
28724;SDS011;43472;48.980;9.646;2023-06-22T16:02:47;17.83;;;4.38;;
28724;SDS011;43472;48.980;9.646;2023-06-22T16:07:50;8.32;;;4.18;;
28724;SDS011;43472;48.980;9.646;2023-06-22T16:12:52;17.42;;;4.05;;
28724;SDS011;43472;48.980;9.646;2023-06-22T16:17:54;14.93;;;4.07;;
28724;SDS011;43472;48.980;9.646;2023-06-22T16:22:56;19.88;;;4.38;;
28724;SDS011;43472;48.980;9.646;2023-06-22T16:27:58;9.32;;;3.45;;
28724;SDS011;43472;48.980;9.646;2023-06-22T16:33:00;16.83;;;5.50;;
28724;SDS011;43472;48.980;9.646;2023-06-22T16:38:04;11.25;;;3.90;;
28724;SDS011;43472;48.980;9.646;2023-06-22T16:43:06;13.57;;;4.22;;
28724;SDS011;43472;48.980;9.646;2023-06-22T16:48:09;14.07;;;3.75;;
28724;SDS011;43472;48.980;9.646;2023-06-22T16:53:11;14.30;;;3.30;;
28724;SDS011;43472;48.980;9.646;2023-06-22T16:58:13;9.13;;;3.75;;
28724;SDS011;43472;48.980;9.646;2023-06-22T17:03:28;15.32;;;3.80;;
28724;SDS011;43472;48.980;9.646;2023-06-22T17:08:31;15.70;;;3.80;;
28724;SDS011;43472;48.980;9.646;2023-06-22T17:13:35;15.00;;;3.17;;
28724;SDS011;43472;48.980;9.646;2023-06-22T17:18:38;14.18;;;3.30;;
28724;SDS011;43472;48.980;9.646;2023-06-22T17:23:41;11.95;;;3.30;;
28724;SDS011;43472;48.980;9.646;2023-06-22T17:28:49;15.43;;;3.30;;
28724;SDS011;43472;48.980;9.646;2023-06-22T17:33:54;14.32;;;3.10;;
28724;SDS011;43472;48.980;9.646;2023-06-22T17:38:59;13.32;;;4.50;;
28724;SDS011;43472;48.980;9.646;2023-06-22T17:44:03;14.73;;;3.40;;
28724;SDS011;43472;48.980;9.646;2023-06-22T17:49:07;24.23;;;3.00;;
28724;SDS011;43472;48.980;9.646;2023-06-22T17:54:10;12.15;;;3.00;;
28724;SDS011;43472;48.980;9.646;2023-06-22T17:59:14;13.43;;;3.15;;
28724;SDS011;43472;48.980;9.646;2023-06-22T18:04:17;15.48;;;2.85;;
28724;SDS011;43472;48.980;9.646;2023-06-22T18:09:21;14.55;;;3.35;;
28724;SDS011;43472;48.980;9.646;2023-06-22T18:14:24;15.27;;;2.85;;
28724;SDS011;43472;48.980;9.646;2023-06-22T18:19:26;8.05;;;2.85;;
28724;SDS011;43472;48.980;9.646;2023-06-22T18:24:29;17.17;;;3.47;;
28724;SDS011;43472;48.980;9.646;2023-06-22T18:29:34;8.68;;;2.78;;
28724;SDS011;43472;48.980;9.646;2023-06-22T18:34:37;9.20;;;2.83;;
28724;SDS011;43472;48.980;9.646;2023-06-22T18:39:44;16.80;;;3.50;;
28724;SDS011;43472;48.980;9.646;2023-06-22T18:44:54;7.30;;;2.20;;
28724;SDS011;43472;48.980;9.646;2023-06-22T18:50:06;10.90;;;3.30;;
28724;SDS011;43472;48.980;9.646;2023-06-22T18:55:13;14.73;;;2.58;;
28724;SDS011;43472;48.980;9.646;2023-06-22T19:00:15;15.98;;;2.35;;
28724;SDS011;43472;48.980;9.646;2023-06-22T19:05:36;15.27;;;3.15;;
28724;SDS011;43472;48.980;9.646;2023-06-22T19:10:42;10.27;;;2.47;;
28724;SDS011;43472;48.980;9.646;2023-06-22T19:15:46;5.78;;;2.17;;
28724;SDS011;43472;48.980;9.646;2023-06-22T19:20:58;8.73;;;2.60;;
28724;SDS011;43472;48.980;9.646;2023-06-22T19:26:05;9.80;;;2.17;;
28724;SDS011;43472;48.980;9.646;2023-06-22T19:31:11;10.52;;;2.92;;
28724;SDS011;43472;48.980;9.646;2023-06-22T19:36:18;8.60;;;2.60;;
28724;SDS011;43472;48.980;9.646;2023-06-22T19:41:22;8.95;;;3.00;;
28724;SDS011;43472;48.980;9.646;2023-06-22T19:46:30;12.10;;;5.78;;
28724;SDS011;43472;48.980;9.646;2023-06-22T19:51:35;9.75;;;3.05;;
28724;SDS011;43472;48.980;9.646;2023-06-22T19:56:37;10.13;;;3.10;;
28724;SDS011;43472;48.980;9.646;2023-06-22T20:01:40;5.28;;;1.55;;
28724;SDS011;43472;48.980;9.646;2023-06-22T20:07:05;6.07;;;1.73;;
28724;SDS011;43472;48.980;9.646;2023-06-22T20:12:41;25.27;;;9.68;;
28724;SDS011;43472;48.980;9.646;2023-06-22T20:17:40;8.55;;;2.20;;
28724;SDS011;43472;48.980;9.646;2023-06-22T20:22:42;7.93;;;2.33;;
28724;SDS011;43472;48.980;9.646;2023-06-22T20:27:48;15.43;;;5.75;;
28724;SDS011;43472;48.980;9.646;2023-06-22T20:32:52;6.43;;;1.77;;
28724;SDS011;43472;48.980;9.646;2023-06-22T20:37:55;6.50;;;2.20;;
28724;SDS011;43472;48.980;9.646;2023-06-22T20:42:58;8.27;;;2.42;;
28724;SDS011;43472;48.980;9.646;2023-06-22T20:48:03;17.67;;;2.63;;
28724;SDS011;43472;48.980;9.646;2023-06-22T20:53:06;8.85;;;3.00;;
28724;SDS011;43472;48.980;9.646;2023-06-22T20:58:10;7.38;;;2.92;;
28724;SDS011;43472;48.980;9.646;2023-06-22T21:03:12;11.43;;;2.35;;
28724;SDS011;43472;48.980;9.646;2023-06-22T21:08:14;6.32;;;2.35;;
28724;SDS011;43472;48.980;9.646;2023-06-22T21:13:17;8.85;;;2.53;;
28724;SDS011;43472;48.980;9.646;2023-06-22T21:18:21;10.23;;;3.47;;
28724;SDS011;43472;48.980;9.646;2023-06-22T21:23:24;7.97;;;3.20;;
28724;SDS011;43472;48.980;9.646;2023-06-22T21:28:26;10.98;;;1.65;;
28724;SDS011;43472;48.980;9.646;2023-06-22T21:33:28;4.50;;;1.10;;
28724;SDS011;43472;48.980;9.646;2023-06-22T21:38:30;1.23;;;0.50;;
28724;SDS011;43472;48.980;9.646;2023-06-22T21:43:32;1.48;;;0.50;;
28724;SDS011;43472;48.980;9.646;2023-06-22T21:48:37;4.63;;;0.50;;
28724;SDS011;43472;48.980;9.646;2023-06-22T21:53:40;1.90;;;0.70;;
28724;SDS011;43472;48.980;9.646;2023-06-22T21:58:42;7.47;;;0.65;;
28724;SDS011;43472;48.980;9.646;2023-06-22T22:03:43;1.10;;;0.40;;
28724;SDS011;43472;48.980;9.646;2023-06-22T22:08:46;0.93;;;0.63;;
28724;SDS011;43472;48.980;9.646;2023-06-22T22:13:48;3.30;;;0.50;;
28724;SDS011;43472;48.980;9.646;2023-06-22T22:18:54;3.72;;;0.60;;
28724;SDS011;43472;48.980;9.646;2023-06-22T22:23:57;2.42;;;0.70;;
28724;SDS011;43472;48.980;9.646;2023-06-22T22:29:00;2.78;;;0.60;;
28724;SDS011;43472;48.980;9.646;2023-06-22T22:34:04;1.42;;;1.08;;
28724;SDS011;43472;48.980;9.646;2023-06-22T22:39:07;1.10;;;0.80;;
28724;SDS011;43472;48.980;9.646;2023-06-22T22:44:12;2.40;;;1.10;;
28724;SDS011;43472;48.980;9.646;2023-06-22T22:49:14;4.57;;;0.70;;
28724;SDS011;43472;48.980;9.646;2023-06-22T22:54:16;1.02;;;0.80;;
28724;SDS011;43472;48.980;9.646;2023-06-22T22:59:20;2.55;;;0.77;;
28724;SDS011;43472;48.980;9.646;2023-06-22T23:04:22;1.42;;;1.05;;
28724;SDS011;43472;48.980;9.646;2023-06-22T23:09:24;2.95;;;1.20;;
28724;SDS011;43472;48.980;9.646;2023-06-22T23:14:28;0.80;;;0.80;;
28724;SDS011;43472;48.980;9.646;2023-06-22T23:19:32;1.42;;;1.10;;
28724;SDS011;43472;48.980;9.646;2023-06-22T23:24:35;7.13;;;1.20;;
28724;SDS011;43472;48.980;9.646;2023-06-22T23:29:38;1.48;;;1.38;;
28724;SDS011;43472;48.980;9.646;2023-06-22T23:34:40;2.53;;;1.40;;
28724;SDS011;43472;48.980;9.646;2023-06-22T23:39:45;5.43;;;1.60;;
28724;SDS011;43472;48.980;9.646;2023-06-22T23:44:48;2.08;;;1.25;;
28724;SDS011;43472;48.980;9.646;2023-06-22T23:49:52;4.63;;;1.63;;
28724;SDS011;43472;48.980;9.646;2023-06-22T23:54:54;3.00;;;1.45;;
28724;SDS011;43472;48.980;9.646;2023-06-22T23:59:56;3.42;;;1.70;;
